sensor_id;sensor_type;location;lat;lon;timestamp;temperature;humidity
38788;DHT22;24536;45.488;12.238;2022-07-09T00:00:01;27.60;49.20
38788;DHT22;24536;45.488;12.238;2022-07-09T00:02:27;27.60;49.30
38788;DHT22;24536;45.488;12.238;2022-07-09T00:04:52;27.50;49.40
38788;DHT22;24536;45.488;12.238;2022-07-09T00:07:18;27.50;49.60
38788;DHT22;24536;45.488;12.238;2022-07-09T00:09:43;27.50;49.70
38788;DHT22;24536;45.488;12.238;2022-07-09T00:12:09;27.40;49.60
38788;DHT22;24536;45.488;12.238;2022-07-09T00:14:35;27.40;49.90
38788;DHT22;24536;45.488;12.238;2022-07-09T00:17:01;27.40;50.00
38788;DHT22;24536;45.488;12.238;2022-07-09T00:19:27;27.40;50.20
38788;DHT22;24536;45.488;12.238;2022-07-09T00:21:52;27.30;50.40
38788;DHT22;24536;45.488;12.238;2022-07-09T00:24:18;27.30;50.60
38788;DHT22;24536;45.488;12.238;2022-07-09T00:26:44;27.30;50.70
38788;DHT22;24536;45.488;12.238;2022-07-09T00:29:09;27.20;50.70
38788;DHT22;24536;45.488;12.238;2022-07-09T00:31:35;27.20;50.60
38788;DHT22;24536;45.488;12.238;2022-07-09T00:34:01;27.10;50.50
38788;DHT22;24536;45.488;12.238;2022-07-09T00:36:26;27.10;50.40
38788;DHT22;24536;45.488;12.238;2022-07-09T00:38:53;27.10;50.30
38788;DHT22;24536;45.488;12.238;2022-07-09T00:41:18;27.10;50.20
38788;DHT22;24536;45.488;12.238;2022-07-09T00:43:49;27.00;50.20
38788;DHT22;24536;45.488;12.238;2022-07-09T00:46:15;26.90;50.20
38788;DHT22;24536;45.488;12.238;2022-07-09T00:48:41;26.90;50.20
38788;DHT22;24536;45.488;12.238;2022-07-09T00:51:08;26.90;50.30
38788;DHT22;24536;45.488;12.238;2022-07-09T00:53:34;26.90;50.30
38788;DHT22;24536;45.488;12.238;2022-07-09T00:56:00;26.90;50.40
38788;DHT22;24536;45.488;12.238;2022-07-09T00:58:26;26.90;50.50
38788;DHT22;24536;45.488;12.238;2022-07-09T01:00:54;26.90;50.40
38788;DHT22;24536;45.488;12.238;2022-07-09T01:03:20;26.90;50.30
38788;DHT22;24536;45.488;12.238;2022-07-09T01:05:46;26.90;50.50
38788;DHT22;24536;45.488;12.238;2022-07-09T01:08:12;26.90;50.10
38788;DHT22;24536;45.488;12.238;2022-07-09T01:10:38;26.90;49.80
38788;DHT22;24536;45.488;12.238;2022-07-09T01:13:04;26.80;49.40
38788;DHT22;24536;45.488;12.238;2022-07-09T01:15:30;26.80;49.40
38788;DHT22;24536;45.488;12.238;2022-07-09T01:17:56;26.70;49.40
38788;DHT22;24536;45.488;12.238;2022-07-09T01:20:27;26.70;49.40
38788;DHT22;24536;45.488;12.238;2022-07-09T01:22:55;26.70;49.40
38788;DHT22;24536;45.488;12.238;2022-07-09T01:25:35;26.60;49.30
38788;DHT22;24536;45.488;12.238;2022-07-09T01:28:03;26.60;49.40
38788;DHT22;24536;45.488;12.238;2022-07-09T01:30:31;26.60;49.30
38788;DHT22;24536;45.488;12.238;2022-07-09T01:32:57;26.60;49.40
38788;DHT22;24536;45.488;12.238;2022-07-09T01:35:23;26.70;49.40
38788;DHT22;24536;45.488;12.238;2022-07-09T01:37:50;26.60;49.10
38788;DHT22;24536;45.488;12.238;2022-07-09T01:40:16;26.60;48.40
38788;DHT22;24536;45.488;12.238;2022-07-09T01:42:42;26.50;48.30
38788;DHT22;24536;45.488;12.238;2022-07-09T01:45:09;26.50;48.60
38788;DHT22;24536;45.488;12.238;2022-07-09T01:47:35;26.40;48.50
38788;DHT22;24536;45.488;12.238;2022-07-09T01:50:01;26.40;48.40
38788;DHT22;24536;45.488;12.238;2022-07-09T01:52:28;26.40;48.20
38788;DHT22;24536;45.488;12.238;2022-07-09T01:54:54;26.50;48.40
38788;DHT22;24536;45.488;12.238;2022-07-09T01:57:20;26.50;48.60
38788;DHT22;24536;45.488;12.238;2022-07-09T01:59:45;26.50;48.50
38788;DHT22;24536;45.488;12.238;2022-07-09T02:02:11;26.40;48.60
38788;DHT22;24536;45.488;12.238;2022-07-09T02:04:37;26.40;48.50
38788;DHT22;24536;45.488;12.238;2022-07-09T02:07:03;26.40;48.60
38788;DHT22;24536;45.488;12.238;2022-07-09T02:09:29;26.40;48.80
38788;DHT22;24536;45.488;12.238;2022-07-09T02:11:55;26.40;49.00
38788;DHT22;24536;45.488;12.238;2022-07-09T02:14:21;26.30;48.90
38788;DHT22;24536;45.488;12.238;2022-07-09T02:16:47;26.30;49.00
38788;DHT22;24536;45.488;12.238;2022-07-09T02:19:14;26.30;49.10
38788;DHT22;24536;45.488;12.238;2022-07-09T02:21:39;26.20;49.00
38788;DHT22;24536;45.488;12.238;2022-07-09T02:24:06;26.20;49.00
38788;DHT22;24536;45.488;12.238;2022-07-09T02:26:32;26.20;49.00
38788;DHT22;24536;45.488;12.238;2022-07-09T02:28:58;26.20;49.10
38788;DHT22;24536;45.488;12.238;2022-07-09T02:31:27;26.20;49.30
38788;DHT22;24536;45.488;12.238;2022-07-09T02:33:53;26.10;49.50
38788;DHT22;24536;45.488;12.238;2022-07-09T02:36:19;26.10;49.60
38788;DHT22;24536;45.488;12.238;2022-07-09T02:38:45;26.10;49.60
38788;DHT22;24536;45.488;12.238;2022-07-09T02:41:11;26.10;49.70
38788;DHT22;24536;45.488;12.238;2022-07-09T02:43:37;26.10;49.80
38788;DHT22;24536;45.488;12.238;2022-07-09T02:46:03;26.00;49.90
38788;DHT22;24536;45.488;12.238;2022-07-09T02:48:30;26.00;49.90
38788;DHT22;24536;45.488;12.238;2022-07-09T02:50:56;26.00;50.00
38788;DHT22;24536;45.488;12.238;2022-07-09T02:53:21;26.00;50.30
38788;DHT22;24536;45.488;12.238;2022-07-09T02:55:47;26.00;50.30
38788;DHT22;24536;45.488;12.238;2022-07-09T02:58:13;26.00;50.30
38788;DHT22;24536;45.488;12.238;2022-07-09T03:00:40;26.00;50.60
38788;DHT22;24536;45.488;12.238;2022-07-09T03:03:07;26.00;50.90
38788;DHT22;24536;45.488;12.238;2022-07-09T03:05:32;26.00;51.20
38788;DHT22;24536;45.488;12.238;2022-07-09T03:07:58;25.90;51.30
38788;DHT22;24536;45.488;12.238;2022-07-09T03:10:24;25.90;51.50
38788;DHT22;24536;45.488;12.238;2022-07-09T03:12:50;25.90;51.50
38788;DHT22;24536;45.488;12.238;2022-07-09T03:15:16;25.90;51.70
38788;DHT22;24536;45.488;12.238;2022-07-09T03:17:45;25.90;52.00
38788;DHT22;24536;45.488;12.238;2022-07-09T03:20:12;25.90;52.00
38788;DHT22;24536;45.488;12.238;2022-07-09T03:22:37;25.90;52.10
38788;DHT22;24536;45.488;12.238;2022-07-09T03:25:04;25.90;52.30
38788;DHT22;24536;45.488;12.238;2022-07-09T03:27:31;25.80;52.30
38788;DHT22;24536;45.488;12.238;2022-07-09T03:29:57;25.80;52.70
38788;DHT22;24536;45.488;12.238;2022-07-09T03:32:22;25.80;53.00
38788;DHT22;24536;45.488;12.238;2022-07-09T03:34:48;25.80;53.30
38788;DHT22;24536;45.488;12.238;2022-07-09T03:37:14;25.80;53.60
38788;DHT22;24536;45.488;12.238;2022-07-09T03:39:40;25.80;53.60
38788;DHT22;24536;45.488;12.238;2022-07-09T03:42:06;25.80;53.60
38788;DHT22;24536;45.488;12.238;2022-07-09T03:44:34;25.80;53.80
38788;DHT22;24536;45.488;12.238;2022-07-09T03:47:00;25.80;54.00
38788;DHT22;24536;45.488;12.238;2022-07-09T03:49:26;25.80;53.70
38788;DHT22;24536;45.488;12.238;2022-07-09T03:51:52;25.70;53.50
38788;DHT22;24536;45.488;12.238;2022-07-09T03:54:18;25.70;53.50
38788;DHT22;24536;45.488;12.238;2022-07-09T03:56:43;25.70;53.40
38788;DHT22;24536;45.488;12.238;2022-07-09T03:59:09;25.70;53.30
38788;DHT22;24536;45.488;12.238;2022-07-09T04:01:40;25.60;53.40
38788;DHT22;24536;45.488;12.238;2022-07-09T04:04:06;25.60;53.30
38788;DHT22;24536;45.488;12.238;2022-07-09T04:06:31;25.60;53.40
38788;DHT22;24536;45.488;12.238;2022-07-09T04:08:57;25.60;53.40
38788;DHT22;24536;45.488;12.238;2022-07-09T04:11:23;25.60;53.50
38788;DHT22;24536;45.488;12.238;2022-07-09T04:13:48;25.60;53.60
38788;DHT22;24536;45.488;12.238;2022-07-09T04:16:15;25.60;53.70
38788;DHT22;24536;45.488;12.238;2022-07-09T04:18:41;25.70;53.60
38788;DHT22;24536;45.488;12.238;2022-07-09T04:21:10;25.70;53.40
38788;DHT22;24536;45.488;12.238;2022-07-09T04:23:36;25.70;53.40
38788;DHT22;24536;45.488;12.238;2022-07-09T04:26:02;25.70;53.40
38788;DHT22;24536;45.488;12.238;2022-07-09T04:28:27;25.70;53.30
38788;DHT22;24536;45.488;12.238;2022-07-09T04:30:53;25.70;53.20
38788;DHT22;24536;45.488;12.238;2022-07-09T04:33:19;25.70;53.10
38788;DHT22;24536;45.488;12.238;2022-07-09T04:35:45;25.70;52.40
38788;DHT22;24536;45.488;12.238;2022-07-09T04:38:14;25.60;52.70
38788;DHT22;24536;45.488;12.238;2022-07-09T04:40:40;25.60;52.80
38788;DHT22;24536;45.488;12.238;2022-07-09T04:43:07;25.60;52.90
38788;DHT22;24536;45.488;12.238;2022-07-09T04:45:33;25.60;53.30
38788;DHT22;24536;45.488;12.238;2022-07-09T04:47:59;25.60;53.30
38788;DHT22;24536;45.488;12.238;2022-07-09T04:50:26;25.70;53.20
38788;DHT22;24536;45.488;12.238;2022-07-09T04:52:51;25.70;53.00
38788;DHT22;24536;45.488;12.238;2022-07-09T04:55:19;25.60;52.60
38788;DHT22;24536;45.488;12.238;2022-07-09T04:57:45;25.60;52.40
38788;DHT22;24536;45.488;12.238;2022-07-09T05:00:11;25.70;52.30
38788;DHT22;24536;45.488;12.238;2022-07-09T05:02:40;25.70;52.50
38788;DHT22;24536;45.488;12.238;2022-07-09T05:05:06;25.70;52.20
38788;DHT22;24536;45.488;12.238;2022-07-09T05:07:33;25.60;51.80
38788;DHT22;24536;45.488;12.238;2022-07-09T05:09:59;25.60;51.90
38788;DHT22;24536;45.488;12.238;2022-07-09T05:12:36;25.70;52.20
38788;DHT22;24536;45.488;12.238;2022-07-09T05:15:03;25.70;52.60
38788;DHT22;24536;45.488;12.238;2022-07-09T05:17:34;25.80;52.10
38788;DHT22;24536;45.488;12.238;2022-07-09T05:20:00;25.80;51.40
38788;DHT22;24536;45.488;12.238;2022-07-09T05:22:25;25.90;51.10
38788;DHT22;24536;45.488;12.238;2022-07-09T05:24:51;25.90;51.00
38788;DHT22;24536;45.488;12.238;2022-07-09T05:27:17;25.90;50.90
38788;DHT22;24536;45.488;12.238;2022-07-09T05:29:42;26.00;50.70
38788;DHT22;24536;45.488;12.238;2022-07-09T05:32:08;26.00;50.50
38788;DHT22;24536;45.488;12.238;2022-07-09T05:34:34;26.00;49.40
38788;DHT22;24536;45.488;12.238;2022-07-09T05:36:59;26.00;49.10
38788;DHT22;24536;45.488;12.238;2022-07-09T05:39:25;26.00;49.30
38788;DHT22;24536;45.488;12.238;2022-07-09T05:41:51;26.00;49.30
38788;DHT22;24536;45.488;12.238;2022-07-09T05:44:16;26.10;49.20
38788;DHT22;24536;45.488;12.238;2022-07-09T05:46:42;26.10;48.60
38788;DHT22;24536;45.488;12.238;2022-07-09T05:49:10;26.10;48.40
38788;DHT22;24536;45.488;12.238;2022-07-09T05:51:38;26.10;48.00
38788;DHT22;24536;45.488;12.238;2022-07-09T05:54:04;26.10;48.10
38788;DHT22;24536;45.488;12.238;2022-07-09T05:56:30;26.10;48.30
38788;DHT22;24536;45.488;12.238;2022-07-09T05:58:55;26.20;48.20
38788;DHT22;24536;45.488;12.238;2022-07-09T06:01:21;26.10;47.30
38788;DHT22;24536;45.488;12.238;2022-07-09T06:03:47;26.10;47.30
38788;DHT22;24536;45.488;12.238;2022-07-09T06:06:12;26.20;47.00
38788;DHT22;24536;45.488;12.238;2022-07-09T06:08:39;26.20;46.90
38788;DHT22;24536;45.488;12.238;2022-07-09T06:11:05;26.30;46.90
38788;DHT22;24536;45.488;12.238;2022-07-09T06:13:30;26.40;47.00
38788;DHT22;24536;45.488;12.238;2022-07-09T06:15:56;26.50;47.00
38788;DHT22;24536;45.488;12.238;2022-07-09T06:18:22;26.60;46.90
38788;DHT22;24536;45.488;12.238;2022-07-09T06:20:48;26.60;46.90
38788;DHT22;24536;45.488;12.238;2022-07-09T06:23:14;26.70;46.70
38788;DHT22;24536;45.488;12.238;2022-07-09T06:25:40;26.70;46.20
38788;DHT22;24536;45.488;12.238;2022-07-09T06:28:06;26.70;45.20
38788;DHT22;24536;45.488;12.238;2022-07-09T06:30:32;26.80;45.20
38788;DHT22;24536;45.488;12.238;2022-07-09T06:33:00;26.80;45.20
38788;DHT22;24536;45.488;12.238;2022-07-09T06:35:26;26.80;45.00
38788;DHT22;24536;45.488;12.238;2022-07-09T06:37:52;26.80;44.90
38788;DHT22;24536;45.488;12.238;2022-07-09T06:40:18;26.90;44.90
38788;DHT22;24536;45.488;12.238;2022-07-09T06:42:43;26.90;44.90
38788;DHT22;24536;45.488;12.238;2022-07-09T06:45:09;26.90;45.00
38788;DHT22;24536;45.488;12.238;2022-07-09T06:47:36;26.90;44.50
38788;DHT22;24536;45.488;12.238;2022-07-09T06:50:02;26.90;44.50
38788;DHT22;24536;45.488;12.238;2022-07-09T06:52:27;26.80;44.60
38788;DHT22;24536;45.488;12.238;2022-07-09T06:54:54;26.80;44.50
38788;DHT22;24536;45.488;12.238;2022-07-09T06:57:20;26.90;44.30
38788;DHT22;24536;45.488;12.238;2022-07-09T06:59:46;26.80;44.20
38788;DHT22;24536;45.488;12.238;2022-07-09T07:02:12;26.90;44.50
38788;DHT22;24536;45.488;12.238;2022-07-09T07:04:38;26.90;44.10
38788;DHT22;24536;45.488;12.238;2022-07-09T07:07:04;26.90;44.30
38788;DHT22;24536;45.488;12.238;2022-07-09T07:09:30;26.90;44.60
38788;DHT22;24536;45.488;12.238;2022-07-09T07:11:56;26.90;44.00
38788;DHT22;24536;45.488;12.238;2022-07-09T07:14:22;26.90;44.30
38788;DHT22;24536;45.488;12.238;2022-07-09T07:16:48;27.00;44.60
38788;DHT22;24536;45.488;12.238;2022-07-09T07:19:14;27.10;44.50
38788;DHT22;24536;45.488;12.238;2022-07-09T07:21:39;27.10;44.60
38788;DHT22;24536;45.488;12.238;2022-07-09T07:24:06;27.20;44.60
38788;DHT22;24536;45.488;12.238;2022-07-09T07:26:32;27.10;45.00
38788;DHT22;24536;45.488;12.238;2022-07-09T07:28:58;27.20;44.40
38788;DHT22;24536;45.488;12.238;2022-07-09T07:31:24;27.20;44.50
38788;DHT22;24536;45.488;12.238;2022-07-09T07:33:51;27.20;44.40
38788;DHT22;24536;45.488;12.238;2022-07-09T07:36:16;27.20;44.60
38788;DHT22;24536;45.488;12.238;2022-07-09T07:38:43;27.30;44.90
38788;DHT22;24536;45.488;12.238;2022-07-09T07:41:10;27.30;45.00
38788;DHT22;24536;45.488;12.238;2022-07-09T07:43:36;27.40;44.90
38788;DHT22;24536;45.488;12.238;2022-07-09T07:46:01;27.40;44.90
38788;DHT22;24536;45.488;12.238;2022-07-09T07:48:27;27.50;45.50
38788;DHT22;24536;45.488;12.238;2022-07-09T07:50:53;27.50;45.60
38788;DHT22;24536;45.488;12.238;2022-07-09T07:53:20;27.50;44.70
38788;DHT22;24536;45.488;12.238;2022-07-09T07:55:46;27.50;44.20
38788;DHT22;24536;45.488;12.238;2022-07-09T07:58:12;27.50;44.30
38788;DHT22;24536;45.488;12.238;2022-07-09T08:00:37;27.50;43.10
38788;DHT22;24536;45.488;12.238;2022-07-09T08:03:03;27.50;44.00
38788;DHT22;24536;45.488;12.238;2022-07-09T08:05:29;27.50;44.40
38788;DHT22;24536;45.488;12.238;2022-07-09T08:07:55;27.50;44.70
38788;DHT22;24536;45.488;12.238;2022-07-09T08:10:21;27.50;44.60
38788;DHT22;24536;45.488;12.238;2022-07-09T08:12:47;27.60;44.70
38788;DHT22;24536;45.488;12.238;2022-07-09T08:15:13;27.60;45.00
38788;DHT22;24536;45.488;12.238;2022-07-09T08:17:39;27.70;44.90
38788;DHT22;24536;45.488;12.238;2022-07-09T08:20:05;27.70;43.90
38788;DHT22;24536;45.488;12.238;2022-07-09T08:22:31;27.70;43.40
38788;DHT22;24536;45.488;12.238;2022-07-09T08:24:56;27.70;43.40
38788;DHT22;24536;45.488;12.238;2022-07-09T08:27:22;27.70;43.80
38788;DHT22;24536;45.488;12.238;2022-07-09T08:29:48;27.70;44.20
38788;DHT22;24536;45.488;12.238;2022-07-09T08:32:16;27.80;44.10
38788;DHT22;24536;45.488;12.238;2022-07-09T08:34:42;27.80;43.50
38788;DHT22;24536;45.488;12.238;2022-07-09T08:37:08;27.80;43.50
38788;DHT22;24536;45.488;12.238;2022-07-09T08:39:33;27.80;44.00
38788;DHT22;24536;45.488;12.238;2022-07-09T08:42:00;27.80;44.20
38788;DHT22;24536;45.488;12.238;2022-07-09T08:44:29;27.90;44.60
38788;DHT22;24536;45.488;12.238;2022-07-09T08:47:00;27.90;43.80
38788;DHT22;24536;45.488;12.238;2022-07-09T08:49:27;28.00;43.80
38788;DHT22;24536;45.488;12.238;2022-07-09T08:51:55;28.10;43.80
38788;DHT22;24536;45.488;12.238;2022-07-09T08:54:22;28.20;44.00
38788;DHT22;24536;45.488;12.238;2022-07-09T08:56:52;28.30;43.80
38788;DHT22;24536;45.488;12.238;2022-07-09T08:59:18;28.30;42.90
38788;DHT22;24536;45.488;12.238;2022-07-09T09:01:44;28.40;43.00
38788;DHT22;24536;45.488;12.238;2022-07-09T09:04:10;28.40;43.30
38788;DHT22;24536;45.488;12.238;2022-07-09T09:06:39;28.50;43.30
38788;DHT22;24536;45.488;12.238;2022-07-09T09:09:09;28.60;43.40
38788;DHT22;24536;45.488;12.238;2022-07-09T09:11:36;28.70;43.40
38788;DHT22;24536;45.488;12.238;2022-07-09T09:14:02;28.80;43.00
38788;DHT22;24536;45.488;12.238;2022-07-09T09:16:29;28.80;43.20
38788;DHT22;24536;45.488;12.238;2022-07-09T09:18:55;28.80;42.70
38788;DHT22;24536;45.488;12.238;2022-07-09T09:21:26;28.80;42.60
38788;DHT22;24536;45.488;12.238;2022-07-09T09:23:53;28.90;42.60
38788;DHT22;24536;45.488;12.238;2022-07-09T09:26:22;28.90;42.30
38788;DHT22;24536;45.488;12.238;2022-07-09T09:28:52;28.90;42.90
38788;DHT22;24536;45.488;12.238;2022-07-09T09:31:24;29.00;42.50
38788;DHT22;24536;45.488;12.238;2022-07-09T09:33:54;29.10;42.60
38788;DHT22;24536;45.488;12.238;2022-07-09T09:36:35;29.10;42.40
38788;DHT22;24536;45.488;12.238;2022-07-09T09:39:28;29.20;42.60
38788;DHT22;24536;45.488;12.238;2022-07-09T09:42:03;29.30;42.60
38788;DHT22;24536;45.488;12.238;2022-07-09T09:44:35;29.30;40.40
38788;DHT22;24536;45.488;12.238;2022-07-09T09:47:06;29.30;42.10
38788;DHT22;24536;45.488;12.238;2022-07-09T09:49:41;29.40;42.20
38788;DHT22;24536;45.488;12.238;2022-07-09T09:52:10;29.50;41.90
38788;DHT22;24536;45.488;12.238;2022-07-09T09:54:40;29.50;41.70
38788;DHT22;24536;45.488;12.238;2022-07-09T09:57:12;29.60;42.00
38788;DHT22;24536;45.488;12.238;2022-07-09T09:59:45;29.60;42.00
38788;DHT22;24536;45.488;12.238;2022-07-09T10:02:12;29.70;42.00
38788;DHT22;24536;45.488;12.238;2022-07-09T10:04:43;29.70;41.70
38788;DHT22;24536;45.488;12.238;2022-07-09T10:07:12;29.80;41.80
38788;DHT22;24536;45.488;12.238;2022-07-09T10:09:38;29.90;41.90
38788;DHT22;24536;45.488;12.238;2022-07-09T10:12:04;29.90;41.80
38788;DHT22;24536;45.488;12.238;2022-07-09T10:14:34;30.00;41.80
38788;DHT22;24536;45.488;12.238;2022-07-09T10:17:11;30.10;41.40
38788;DHT22;24536;45.488;12.238;2022-07-09T10:19:38;30.10;41.30
38788;DHT22;24536;45.488;12.238;2022-07-09T10:22:04;30.20;41.50
38788;DHT22;24536;45.488;12.238;2022-07-09T10:24:33;30.30;41.40
38788;DHT22;24536;45.488;12.238;2022-07-09T10:27:09;30.30;40.80
38788;DHT22;24536;45.488;12.238;2022-07-09T10:29:50;30.30;40.90
38788;DHT22;24536;45.488;12.238;2022-07-09T10:32:30;30.40;41.30
38788;DHT22;24536;45.488;12.238;2022-07-09T10:35:02;30.60;41.10
38788;DHT22;24536;45.488;12.238;2022-07-09T10:37:44;30.60;40.60
38788;DHT22;24536;45.488;12.238;2022-07-09T10:40:13;30.70;40.60
38788;DHT22;24536;45.488;12.238;2022-07-09T10:42:42;30.80;40.10
38788;DHT22;24536;45.488;12.238;2022-07-09T10:45:28;30.80;39.90
38788;DHT22;24536;45.488;12.238;2022-07-09T10:47:58;30.90;39.70
38788;DHT22;24536;45.488;12.238;2022-07-09T10:50:26;31.00;40.00
38788;DHT22;24536;45.488;12.238;2022-07-09T10:52:53;31.10;39.50
38788;DHT22;24536;45.488;12.238;2022-07-09T10:55:28;31.20;39.20
38788;DHT22;24536;45.488;12.238;2022-07-09T10:57:54;31.20;38.60
38788;DHT22;24536;45.488;12.238;2022-07-09T11:00:28;31.30;38.90
38788;DHT22;24536;45.488;12.238;2022-07-09T11:02:56;31.50;39.20
38788;DHT22;24536;45.488;12.238;2022-07-09T11:05:26;31.60;38.70
38788;DHT22;24536;45.488;12.238;2022-07-09T11:07:56;31.70;37.90
38788;DHT22;24536;45.488;12.238;2022-07-09T11:10:21;31.80;38.50
38788;DHT22;24536;45.488;12.238;2022-07-09T11:12:48;32.00;38.80
38788;DHT22;24536;45.488;12.238;2022-07-09T11:15:18;32.00;38.40
38788;DHT22;24536;45.488;12.238;2022-07-09T11:17:44;32.10;38.40
38788;DHT22;24536;45.488;12.238;2022-07-09T11:20:13;32.20;38.30
38788;DHT22;24536;45.488;12.238;2022-07-09T11:22:38;32.30;37.50
38788;DHT22;24536;45.488;12.238;2022-07-09T11:25:11;32.40;37.80
38788;DHT22;24536;45.488;12.238;2022-07-09T11:27:40;32.50;37.90
38788;DHT22;24536;45.488;12.238;2022-07-09T11:30:07;32.70;38.10
38788;DHT22;24536;45.488;12.238;2022-07-09T11:32:36;33.00;38.20
38788;DHT22;24536;45.488;12.238;2022-07-09T11:35:02;33.30;38.00
38788;DHT22;24536;45.488;12.238;2022-07-09T11:37:28;33.70;37.30
38788;DHT22;24536;45.488;12.238;2022-07-09T11:39:53;34.00;36.50
38788;DHT22;24536;45.488;12.238;2022-07-09T11:42:19;34.40;36.30
38788;DHT22;24536;45.488;12.238;2022-07-09T11:44:56;34.50;34.20
38788;DHT22;24536;45.488;12.238;2022-07-09T11:47:39;34.90;34.50
38788;DHT22;24536;45.488;12.238;2022-07-09T11:50:10;35.30;34.80
38788;DHT22;24536;45.488;12.238;2022-07-09T11:52:43;35.70;33.40
38788;DHT22;24536;45.488;12.238;2022-07-09T11:55:11;35.80;33.10
38788;DHT22;24536;45.488;12.238;2022-07-09T11:57:37;36.00;33.00
38788;DHT22;24536;45.488;12.238;2022-07-09T12:00:08;36.10;33.80
38788;DHT22;24536;45.488;12.238;2022-07-09T12:02:45;36.30;32.80
38788;DHT22;24536;45.488;12.238;2022-07-09T12:05:11;36.30;33.40
38788;DHT22;24536;45.488;12.238;2022-07-09T12:07:37;36.50;33.60
38788;DHT22;24536;45.488;12.238;2022-07-09T12:10:06;36.50;33.40
38788;DHT22;24536;45.488;12.238;2022-07-09T12:12:34;36.70;33.10
38788;DHT22;24536;45.488;12.238;2022-07-09T12:15:00;36.80;33.00
38788;DHT22;24536;45.488;12.238;2022-07-09T12:17:28;36.80;32.70
38788;DHT22;24536;45.488;12.238;2022-07-09T12:19:55;36.70;32.50
38788;DHT22;24536;45.488;12.238;2022-07-09T12:22:22;36.60;33.00
38788;DHT22;24536;45.488;12.238;2022-07-09T12:24:53;36.70;32.50
38788;DHT22;24536;45.488;12.238;2022-07-09T12:27:20;36.80;32.50
38788;DHT22;24536;45.488;12.238;2022-07-09T12:29:46;36.40;31.70
38788;DHT22;24536;45.488;12.238;2022-07-09T12:32:12;36.50;31.90
38788;DHT22;24536;45.488;12.238;2022-07-09T12:34:38;36.70;32.30
38788;DHT22;24536;45.488;12.238;2022-07-09T12:37:04;36.50;31.60
38788;DHT22;24536;45.488;12.238;2022-07-09T12:39:30;36.50;32.60
38788;DHT22;24536;45.488;12.238;2022-07-09T12:41:56;36.70;31.80
38788;DHT22;24536;45.488;12.238;2022-07-09T12:44:23;36.70;32.30
38788;DHT22;24536;45.488;12.238;2022-07-09T12:46:50;36.80;31.50
38788;DHT22;24536;45.488;12.238;2022-07-09T12:49:16;36.90;32.30
38788;DHT22;24536;45.488;12.238;2022-07-09T12:51:42;37.00;31.30
38788;DHT22;24536;45.488;12.238;2022-07-09T12:54:07;37.00;31.40
38788;DHT22;24536;45.488;12.238;2022-07-09T12:56:33;37.10;31.10
38788;DHT22;24536;45.488;12.238;2022-07-09T12:58:59;37.00;30.60
38788;DHT22;24536;45.488;12.238;2022-07-09T13:01:24;37.20;31.20
38788;DHT22;24536;45.488;12.238;2022-07-09T13:03:50;37.30;31.10
38788;DHT22;24536;45.488;12.238;2022-07-09T13:06:16;37.30;30.50
38788;DHT22;24536;45.488;12.238;2022-07-09T13:09:01;37.40;30.70
38788;DHT22;24536;45.488;12.238;2022-07-09T13:11:29;37.40;30.40
38788;DHT22;24536;45.488;12.238;2022-07-09T13:13:56;37.00;30.40
38788;DHT22;24536;45.488;12.238;2022-07-09T13:16:22;37.20;30.60
38788;DHT22;24536;45.488;12.238;2022-07-09T13:18:48;37.20;30.60
38788;DHT22;24536;45.488;12.238;2022-07-09T13:21:14;37.00;30.00
38788;DHT22;24536;45.488;12.238;2022-07-09T13:23:40;37.10;30.00
38788;DHT22;24536;45.488;12.238;2022-07-09T13:26:06;37.00;30.90
38788;DHT22;24536;45.488;12.238;2022-07-09T13:28:32;37.00;30.90
38788;DHT22;24536;45.488;12.238;2022-07-09T13:30:58;37.00;31.10
38788;DHT22;24536;45.488;12.238;2022-07-09T13:33:24;36.70;31.20
38788;DHT22;24536;45.488;12.238;2022-07-09T13:35:49;36.70;31.40
38788;DHT22;24536;45.488;12.238;2022-07-09T13:38:15;36.30;31.00
38788;DHT22;24536;45.488;12.238;2022-07-09T13:40:41;36.30;31.60
38788;DHT22;24536;45.488;12.238;2022-07-09T13:43:06;36.40;32.10
38788;DHT22;24536;45.488;12.238;2022-07-09T13:45:32;36.50;31.90
38788;DHT22;24536;45.488;12.238;2022-07-09T13:48:00;36.40;31.00
38788;DHT22;24536;45.488;12.238;2022-07-09T13:50:27;36.40;31.70
38788;DHT22;24536;45.488;12.238;2022-07-09T13:52:53;36.30;31.20
38788;DHT22;24536;45.488;12.238;2022-07-09T13:55:20;36.20;30.80
38788;DHT22;24536;45.488;12.238;2022-07-09T13:57:45;36.30;31.40
38788;DHT22;24536;45.488;12.238;2022-07-09T14:00:11;36.10;31.50
38788;DHT22;24536;45.488;12.238;2022-07-09T14:02:37;36.00;31.40
38788;DHT22;24536;45.488;12.238;2022-07-09T14:05:05;35.90;31.20
38788;DHT22;24536;45.488;12.238;2022-07-09T14:07:31;35.80;31.90
38788;DHT22;24536;45.488;12.238;2022-07-09T14:09:57;35.60;30.70
38788;DHT22;24536;45.488;12.238;2022-07-09T14:12:23;35.20;32.00
38788;DHT22;24536;45.488;12.238;2022-07-09T14:14:53;35.20;32.10
38788;DHT22;24536;45.488;12.238;2022-07-09T14:17:19;35.20;30.30
38788;DHT22;24536;45.488;12.238;2022-07-09T14:19:45;35.10;31.60
38788;DHT22;24536;45.488;12.238;2022-07-09T14:22:15;35.10;32.40
38788;DHT22;24536;45.488;12.238;2022-07-09T14:24:41;35.10;32.70
38788;DHT22;24536;45.488;12.238;2022-07-09T14:27:07;35.10;32.30
38788;DHT22;24536;45.488;12.238;2022-07-09T14:29:36;34.90;31.90
38788;DHT22;24536;45.488;12.238;2022-07-09T14:32:03;34.80;32.00
38788;DHT22;24536;45.488;12.238;2022-07-09T14:34:29;34.80;32.00
38788;DHT22;24536;45.488;12.238;2022-07-09T14:36:54;34.70;32.10
38788;DHT22;24536;45.488;12.238;2022-07-09T14:39:20;34.70;32.30
38788;DHT22;24536;45.488;12.238;2022-07-09T14:41:49;34.70;32.20
38788;DHT22;24536;45.488;12.238;2022-07-09T14:44:15;34.60;32.40
38788;DHT22;24536;45.488;12.238;2022-07-09T14:46:41;34.50;32.40
38788;DHT22;24536;45.488;12.238;2022-07-09T14:49:07;34.40;32.40
38788;DHT22;24536;45.488;12.238;2022-07-09T14:51:36;34.30;32.80
38788;DHT22;24536;45.488;12.238;2022-07-09T14:54:02;34.30;32.90
38788;DHT22;24536;45.488;12.238;2022-07-09T14:56:28;34.20;32.80
38788;DHT22;24536;45.488;12.238;2022-07-09T14:58:54;34.10;33.30
38788;DHT22;24536;45.488;12.238;2022-07-09T15:01:20;34.00;33.50
38788;DHT22;24536;45.488;12.238;2022-07-09T15:03:45;33.90;33.10
38788;DHT22;24536;45.488;12.238;2022-07-09T15:06:11;33.80;33.50
38788;DHT22;24536;45.488;12.238;2022-07-09T15:08:37;33.70;33.40
38788;DHT22;24536;45.488;12.238;2022-07-09T15:11:03;33.50;33.30
38788;DHT22;24536;45.488;12.238;2022-07-09T15:13:30;33.40;33.40